createdAt,value
2023-04-02T00:01:26.595Z,5.75
2023-04-02T00:04:22.036Z,5.79
2023-04-02T00:06:55.383Z,5.78
2023-04-02T00:09:32.491Z,5.78
2023-04-02T00:12:15.127Z,5.67
2023-04-02T00:14:47.936Z,5.64
2023-04-02T00:17:16.148Z,5.63
2023-04-02T00:19:49.752Z,5.64
2023-04-02T00:22:20.194Z,5.42
2023-04-02T00:24:51.747Z,5.39
2023-04-02T00:27:20.681Z,5.23
2023-04-02T00:29:49.680Z,5.26
2023-04-02T00:32:23.239Z,5.18
2023-04-02T00:34:51.381Z,5.29
2023-04-02T00:37:23.907Z,5.26
2023-04-02T00:39:57.672Z,5.23
2023-04-02T00:42:26.175Z,5.21
2023-04-02T00:44:55.860Z,5.19
2023-04-02T00:47:26.920Z,5.05
2023-04-02T00:49:59.585Z,4.88
2023-04-02T00:52:31.273Z,5.02
2023-04-02T00:55:07.126Z,5.04
2023-04-02T00:57:35.303Z,5.11
2023-04-02T01:00:19.931Z,5.08
2023-04-02T01:03:22.657Z,4.99
2023-04-02T01:05:56.429Z,4.99
2023-04-02T01:08:31.602Z,5.01
2023-04-02T01:11:09.175Z,4.98
2023-04-02T01:13:42.632Z,4.91
2023-04-02T01:16:21.570Z,4.83
2023-04-02T01:18:58.384Z,4.80
2023-04-02T01:21:42.035Z,4.72
2023-04-02T01:24:11.743Z,4.48
2023-04-02T01:26:52.358Z,4.53
2023-04-02T01:29:24.603Z,4.69
2023-04-02T01:31:54.865Z,4.57
2023-04-02T01:34:26.742Z,4.56
2023-04-02T01:37:06.284Z,4.66
2023-04-02T01:39:46.834Z,4.60
2023-04-02T01:42:21.539Z,4.58
2023-04-02T01:44:52.385Z,4.37
2023-04-02T01:47:24.381Z,4.41
2023-04-02T01:49:55.820Z,4.57
2023-04-02T01:52:35.541Z,4.57
2023-04-02T01:55:04.357Z,4.50
2023-04-02T01:57:32.147Z,4.54
2023-04-02T02:00:07.526Z,4.45
2023-04-02T02:02:35.243Z,4.35
2023-04-02T02:05:03.035Z,4.43
2023-04-02T02:07:30.886Z,4.27
2023-04-02T02:09:58.559Z,4.44
2023-04-02T02:12:26.305Z,4.48
2023-04-02T02:14:53.871Z,4.47
2023-04-02T02:17:28.250Z,4.36
2023-04-02T02:19:58.936Z,4.28
2023-04-02T02:22:31.001Z,4.24
2023-04-02T02:25:00.911Z,4.30
2023-04-02T02:27:47.909Z,4.23
2023-04-02T02:30:18.370Z,4.23
2023-04-02T02:32:56.500Z,4.24
2023-04-02T02:35:29.334Z,4.19
2023-04-02T02:38:03.647Z,4.20
2023-04-02T02:40:37.767Z,3.99
2023-04-02T02:43:11.159Z,4.11
2023-04-02T02:45:40.983Z,4.11
2023-04-02T02:48:14.472Z,4.05
2023-04-02T02:50:42.926Z,3.97
2023-04-02T02:53:18.339Z,3.93
2023-04-02T02:55:47.398Z,4.02
2023-04-02T02:58:19.125Z,3.95
2023-04-02T03:00:47.998Z,3.70
2023-04-02T03:03:21.861Z,3.80
2023-04-02T03:05:53.402Z,3.88
2023-04-02T03:08:29.717Z,3.73
2023-04-02T03:11:03.583Z,3.77
2023-04-02T03:13:35.234Z,3.95
2023-04-02T03:16:10.318Z,3.83
2023-04-02T03:18:44.819Z,3.94
2023-04-02T03:21:22.385Z,3.82
2023-04-02T03:23:55.212Z,3.86
2023-04-02T03:26:28.126Z,3.80
2023-04-02T03:29:02.451Z,3.87
2023-04-02T03:31:35.888Z,3.77
2023-04-02T03:34:10.661Z,3.69
2023-04-02T03:36:46.516Z,3.67
2023-04-02T03:39:20.447Z,3.72
2023-04-02T03:41:54.026Z,3.72
2023-04-02T03:44:28.902Z,3.59
2023-04-02T03:47:01.901Z,3.68
2023-04-02T03:49:37.463Z,3.63
2023-04-02T03:52:07.384Z,3.65
2023-04-02T03:54:34.976Z,3.42
2023-04-02T03:57:03.317Z,3.33
2023-04-02T03:59:39.601Z,3.58
2023-04-02T04:02:20.482Z,3.46
2023-04-02T04:04:51.101Z,3.46
2023-04-02T04:07:24.052Z,3.43
2023-04-02T04:09:55.358Z,3.40
2023-04-02T04:12:31.010Z,3.43
2023-04-02T04:15:05.507Z,3.42
2023-04-02T04:17:42.272Z,3.27
2023-04-02T04:20:22.062Z,3.30
2023-04-02T04:22:55.556Z,3.31
2023-04-02T04:25:29.707Z,3.36
2023-04-02T04:28:08.120Z,3.31
2023-04-02T04:30:45.182Z,3.23
2023-04-02T04:33:23.173Z,3.37
2023-04-02T04:35:56.643Z,3.41
2023-04-02T04:38:32.565Z,3.20
2023-04-02T04:41:04.802Z,3.28
2023-04-02T04:43:41.978Z,3.35
2023-04-02T04:46:15.480Z,3.32
2023-04-02T04:48:51.985Z,3.25
2023-04-02T04:51:25.713Z,3.23
2023-04-02T04:53:56.115Z,3.24
2023-04-02T04:56:26.659Z,3.14
2023-04-02T04:58:58.640Z,3.06
2023-04-02T05:01:31.598Z,3.13
2023-04-02T05:04:02.363Z,3.16
2023-04-02T05:06:38.921Z,3.03
2023-04-02T05:09:14.716Z,3.12
2023-04-02T05:11:46.873Z,2.88
2023-04-02T05:14:23.291Z,2.97
2023-04-02T05:16:57.303Z,2.98
2023-04-02T05:19:29.805Z,3.00
2023-04-02T05:22:04.537Z,2.94
2023-04-02T05:24:44.125Z,2.78
2023-04-02T05:27:29.405Z,2.69
2023-04-02T05:30:04.388Z,2.74
2023-04-02T05:32:35.645Z,2.73
2023-04-02T05:35:06.566Z,2.69
2023-04-02T05:37:35.688Z,2.68
2023-04-02T05:40:14.602Z,2.63
2023-04-02T05:42:46.037Z,2.61
2023-04-02T05:45:25.914Z,2.50
2023-04-02T05:47:59.803Z,2.62
2023-04-02T05:50:31.209Z,2.38
2023-04-02T05:53:07.512Z,2.67
2023-04-02T05:55:42.662Z,2.66
2023-04-02T06:01:17.408Z,2.68
2023-04-02T06:03:52.222Z,2.67
2023-04-02T06:06:28.952Z,2.68
2023-04-02T06:09:05.536Z,2.59
2023-04-02T06:11:42.263Z,2.48
2023-04-02T06:14:12.812Z,2.57
2023-04-02T06:16:40.812Z,2.43
2023-04-02T06:19:15.982Z,2.45
2023-04-02T06:21:47.190Z,2.56
2023-04-02T06:24:19.081Z,2.41
2023-04-02T06:26:52.949Z,2.46
2023-04-02T06:29:28.492Z,2.42
2023-04-02T06:31:58.495Z,2.40
2023-04-02T06:34:28.658Z,2.37
2023-04-02T06:36:58.347Z,2.43
2023-04-02T06:39:28.418Z,2.17
2023-04-02T06:42:00.796Z,2.41
2023-04-02T06:44:33.036Z,2.42
2023-04-02T06:47:05.840Z,2.39
2023-04-02T06:49:39.742Z,2.29
2023-04-02T06:52:15.119Z,2.40
2023-04-02T06:54:44.164Z,2.39
2023-04-02T06:57:13.776Z,2.37
2023-04-02T06:59:41.435Z,2.53
2023-04-02T07:02:25.456Z,2.38
2023-04-02T07:04:53.681Z,2.38
2023-04-02T07:07:21.370Z,2.53
2023-04-02T07:09:50.390Z,2.52
2023-04-02T07:12:23.741Z,2.37
2023-04-02T07:14:51.414Z,2.40
2023-04-02T07:17:19.699Z,2.40
2023-04-02T07:19:49.593Z,2.31
2023-04-02T07:22:18.204Z,2.13
2023-04-02T07:24:46.837Z,2.18
2023-04-02T07:27:16.689Z,2.21
2023-04-02T07:29:44.498Z,2.29
2023-04-02T07:32:13.361Z,2.27
2023-04-02T07:34:42.034Z,2.36
2023-04-02T07:37:14.914Z,2.13
2023-04-02T07:39:42.547Z,2.27
2023-04-02T07:42:11.001Z,2.14
2023-04-02T07:44:39.991Z,2.17
2023-04-02T07:47:08.587Z,2.17
2023-04-02T07:49:36.292Z,2.35
2023-04-02T07:52:04.389Z,2.24
2023-04-02T07:54:32.053Z,2.39
2023-04-02T07:56:59.744Z,2.32
2023-04-02T07:59:27.399Z,2.19
2023-04-02T08:01:56.441Z,2.38
2023-04-02T08:04:24.112Z,2.37
2023-04-02T08:06:52.850Z,2.37
2023-04-02T08:09:20.388Z,2.04
2023-04-02T08:11:48.036Z,2.18
2023-04-02T08:14:15.973Z,2.27
2023-04-02T08:16:48.915Z,2.11
2023-04-02T08:19:18.805Z,2.04
2023-04-02T08:21:48.007Z,2.10
2023-04-02T08:24:15.616Z,2.23
2023-04-02T08:26:44.554Z,2.31
2023-04-02T08:29:13.036Z,2.23
2023-04-02T08:31:40.790Z,2.28
2023-04-02T08:34:09.050Z,2.40
2023-04-02T08:36:40.123Z,2.36
2023-04-02T08:39:11.499Z,2.16
2023-04-02T08:41:44.840Z,2.18
2023-04-02T08:44:33.522Z,2.35
2023-04-02T08:47:04.650Z,2.09
2023-04-02T08:49:36.259Z,2.28
2023-04-02T08:52:05.140Z,2.36
2023-04-02T08:54:37.791Z,2.29
2023-04-02T08:57:16.593Z,2.35
2023-04-02T08:59:47.017Z,2.19
2023-04-02T09:02:28.442Z,2.29
2023-04-02T09:04:58.440Z,2.30
2023-04-02T09:07:28.397Z,2.22
2023-04-02T09:09:57.922Z,2.31
2023-04-02T09:12:28.136Z,2.04
2023-04-02T09:15:06.612Z,2.27
2023-04-02T09:17:42.642Z,2.33
2023-04-02T09:20:22.521Z,2.12
2023-04-02T09:22:53.065Z,2.05
2023-04-02T09:25:23.123Z,2.03
2023-04-02T09:27:52.340Z,1.89
2023-04-02T09:30:30.847Z,1.82
2023-04-02T09:33:01.928Z,1.60
2023-04-02T09:35:33.649Z,1.67
2023-04-02T09:38:19.129Z,1.78
2023-04-02T09:40:49.692Z,1.86
2023-04-02T09:43:19.400Z,1.79
2023-04-02T09:45:58.526Z,1.91
2023-04-02T09:48:30.184Z,1.75
2023-04-02T09:51:07.974Z,1.77
2023-04-02T09:53:39.948Z,1.91
2023-04-02T09:56:15.523Z,1.80
2023-04-02T09:58:45.009Z,1.76
2023-04-02T10:01:30.645Z,1.73
2023-04-02T10:03:59.583Z,1.82
2023-04-02T10:06:29.347Z,1.87
2023-04-02T10:08:58.673Z,1.75
2023-04-02T10:11:40.130Z,1.81
2023-04-02T10:14:19.832Z,1.77
2023-04-02T10:16:51.469Z,1.86
2023-04-02T10:19:27.448Z,1.81
2023-04-02T10:21:56.490Z,1.72
2023-04-02T10:24:29.149Z,1.60
2023-04-02T10:27:06.803Z,1.72
2023-04-02T10:30:03.855Z,1.65
2023-04-02T10:32:37.589Z,1.92
2023-04-02T10:35:16.021Z,2.01
2023-04-02T10:38:00.036Z,1.77
2023-04-02T10:40:35.984Z,1.75
2023-04-02T10:43:39.964Z,1.67
2023-04-02T10:46:10.352Z,1.77
2023-04-02T10:48:45.717Z,1.91
2023-04-02T10:51:20.066Z,1.86
2023-04-02T10:53:54.664Z,1.67
2023-04-02T10:56:26.180Z,1.59
2023-04-02T10:58:59.318Z,1.81
2023-04-02T11:01:32.035Z,1.66
2023-04-02T11:04:02.444Z,1.83
2023-04-02T11:06:35.682Z,1.73
2023-04-02T11:09:08.714Z,1.73
2023-04-02T11:11:42.343Z,1.80
2023-04-02T11:14:15.350Z,1.46
2023-04-02T11:16:44.891Z,1.53
2023-04-02T11:19:27.141Z,1.42
2023-04-02T11:21:59.925Z,1.47
2023-04-02T11:24:38.112Z,1.53
2023-04-02T11:27:15.783Z,1.73
2023-04-02T11:29:45.482Z,1.50
2023-04-02T11:32:28.146Z,1.68
2023-04-02T11:35:21.612Z,1.50
2023-04-02T11:37:49.162Z,1.47
2023-04-02T11:40:44.684Z,1.54
2023-04-02T11:43:49.838Z,1.71
2023-04-02T11:46:46.333Z,1.51
2023-04-02T11:49:40.719Z,1.65
2023-04-02T11:52:32.515Z,1.52
2023-04-02T11:55:19.455Z,1.65
2023-04-02T11:57:56.568Z,1.58
2023-04-02T12:01:02.807Z,1.59
2023-04-02T12:03:51.142Z,1.60
2023-04-02T12:06:29.300Z,1.61
2023-04-02T12:09:08.391Z,1.63
2023-04-02T12:11:38.874Z,1.66
2023-04-02T12:14:29.012Z,1.64
2023-04-02T12:16:57.279Z,1.85
2023-04-02T12:19:27.551Z,1.88
2023-04-02T12:21:56.357Z,1.77
2023-04-02T12:24:25.494Z,1.86
2023-04-02T12:27:15.468Z,1.78
2023-04-02T12:29:43.331Z,1.89
2023-04-02T12:32:21.968Z,2.00
2023-04-02T12:34:52.576Z,1.91
2023-04-02T12:37:23.592Z,1.86
2023-04-02T12:39:56.631Z,1.95
2023-04-02T12:42:28.906Z,1.99
2023-04-02T12:44:56.437Z,1.81
2023-04-02T12:47:24.478Z,1.95
2023-04-02T12:49:54.412Z,1.90
2023-04-02T12:52:24.529Z,1.84
2023-04-02T12:54:54.184Z,1.86
2023-04-02T12:57:36.588Z,1.98
2023-04-02T13:00:32.853Z,2.02
2023-04-02T13:03:03.082Z,2.14
2023-04-02T13:05:37.132Z,1.95
2023-04-02T13:08:05.699Z,2.11
2023-04-02T13:10:33.765Z,2.09
2023-04-02T13:13:04.019Z,2.15
2023-04-02T13:15:38.343Z,1.82
2023-04-02T13:18:21.605Z,1.65
2023-04-02T13:20:58.278Z,1.87
2023-04-02T13:23:33.331Z,2.07
2023-04-02T13:26:03.178Z,2.05
2023-04-02T13:28:31.188Z,1.68
2023-04-02T13:30:58.730Z,1.80
2023-04-02T13:33:26.520Z,1.99
2023-04-02T13:35:54.607Z,1.60
2023-04-02T13:38:24.903Z,2.03
2023-04-02T13:40:52.574Z,1.95
2023-04-02T13:43:21.662Z,2.12
2023-04-02T13:45:53.203Z,1.84
2023-04-02T13:48:24.673Z,1.97
2023-04-02T13:50:53.555Z,2.04
2023-04-02T13:53:29.404Z,2.25
2023-04-02T13:59:33.893Z,2.22
2023-04-02T14:02:07.487Z,2.12
2023-04-02T14:04:41.251Z,2.15
2023-04-02T14:07:26.863Z,2.16
2023-04-02T14:10:04.068Z,2.12
2023-04-02T14:12:42.279Z,1.97
2023-04-02T14:15:22.940Z,2.12
2023-04-02T14:18:03.837Z,2.27
2023-04-02T14:20:43.412Z,2.29
2023-04-02T14:23:26.442Z,2.19
2023-04-02T14:26:05.328Z,2.39
2023-04-02T14:28:42.889Z,2.32
2023-04-02T14:31:20.686Z,2.29
2023-04-02T14:34:15.690Z,2.20
2023-04-02T14:36:53.137Z,2.43
2023-04-02T14:39:29.343Z,2.38
2023-04-02T14:42:02.652Z,2.36
2023-04-02T14:44:37.740Z,2.32
2023-04-02T14:47:18.338Z,2.27
2023-04-02T14:49:49.548Z,2.40
2023-04-02T14:52:19.846Z,2.37
2023-04-02T14:54:51.820Z,2.20
2023-04-02T14:57:24.323Z,2.34
2023-04-02T14:59:59.874Z,2.30
2023-04-02T15:02:37.354Z,2.39
2023-04-02T15:05:12.460Z,2.36
2023-04-02T15:07:44.533Z,2.44
2023-04-02T15:10:21.415Z,2.26
2023-04-02T15:12:51.955Z,2.13
2023-04-02T15:15:33.401Z,2.31
2023-04-02T15:18:10.326Z,2.38
2023-04-02T15:20:44.472Z,2.42
2023-04-02T15:23:24.264Z,2.17
2023-04-02T15:26:03.515Z,2.28
2023-04-02T15:32:06.449Z,2.35
2023-04-02T15:34:38.498Z,2.22
2023-04-02T15:39:56.639Z,2.20
2023-04-02T15:42:28.804Z,2.34
2023-04-02T15:45:27.360Z,1.84
2023-04-02T15:48:23.983Z,1.91
2023-04-02T15:51:05.198Z,1.97
2023-04-02T15:57:10.537Z,2.52
2023-04-02T15:59:56.267Z,2.47
2023-04-02T16:02:47.308Z,2.58
2023-04-02T16:05:22.735Z,2.45
2023-04-02T16:08:09.175Z,2.48
2023-04-02T16:10:42.600Z,2.44
2023-04-02T16:13:19.131Z,2.37
2023-04-02T16:15:52.785Z,2.54
2023-04-02T16:18:34.379Z,2.43
2023-04-02T16:21:04.211Z,2.42
2023-04-02T16:23:36.109Z,2.47
2023-04-02T16:26:13.407Z,2.43
2023-04-02T16:28:47.120Z,2.37
2023-04-02T16:31:20.883Z,2.17
2023-04-02T16:34:02.310Z,2.42
2023-04-02T16:36:44.648Z,2.40
2023-04-02T16:39:26.866Z,2.36
2023-04-02T16:42:05.865Z,2.18
2023-04-02T16:44:46.624Z,2.09
2023-04-02T16:47:38.861Z,2.03
2023-04-02T16:50:20.528Z,2.02
2023-04-02T16:52:58.666Z,2.23
2023-04-02T16:55:46.290Z,2.06
2023-04-02T16:58:30.717Z,2.06
2023-04-02T17:01:08.535Z,1.97
2023-04-02T17:04:03.922Z,1.75
2023-04-02T17:06:43.699Z,1.76
2023-04-02T17:09:19.089Z,1.91
2023-04-02T17:11:55.542Z,1.73
2023-04-02T17:14:53.065Z,1.29
2023-04-02T17:17:51.680Z,1.72
2023-04-02T17:20:24.605Z,1.21
2023-04-02T17:22:55.721Z,1.24
2023-04-02T17:25:37.391Z,1.16
2023-04-02T17:28:11.984Z,1.23
2023-04-02T17:30:49.724Z,1.11
2023-04-02T17:36:45.080Z,1.10
2023-04-02T17:39:36.581Z,1.00
2023-04-02T17:46:03.043Z,0.97
2023-04-02T17:48:57.585Z,0.97
2023-04-02T17:51:43.175Z,1.11
2023-04-02T17:54:25.496Z,1.49
2023-04-02T17:57:07.782Z,1.20
2023-04-02T17:59:56.734Z,1.39
2023-04-02T18:02:40.139Z,1.13
2023-04-02T18:05:18.558Z,1.39
2023-04-02T18:07:59.696Z,1.00
2023-04-02T18:10:40.375Z,1.11
2023-04-02T18:13:24.142Z,0.89
2023-04-02T18:16:18.055Z,1.28
2023-04-02T18:19:10.170Z,0.96
2023-04-02T18:21:46.660Z,1.12
2023-04-02T18:24:31.687Z,1.32
2023-04-02T18:27:14.287Z,1.38
2023-04-02T18:29:52.090Z,1.23
2023-04-02T18:32:39.978Z,1.38
2023-04-02T18:35:15.996Z,1.39
2023-04-02T18:38:04.481Z,0.94
2023-04-02T18:40:43.415Z,1.43
2023-04-02T18:43:25.954Z,1.13
2023-04-02T18:45:59.275Z,1.18
2023-04-02T18:48:42.136Z,1.25
2023-04-02T18:51:15.672Z,1.23
2023-04-02T18:53:44.667Z,1.42
2023-04-02T18:56:15.625Z,1.06
2023-04-02T18:58:57.002Z,1.34
2023-04-02T19:01:31.223Z,1.22
2023-04-02T19:04:04.892Z,1.10
2023-04-02T19:06:37.925Z,0.90
2023-04-02T19:09:12.845Z,1.05
2023-04-02T19:11:40.941Z,1.12
2023-04-02T19:14:14.136Z,1.20
2023-04-02T19:16:56.716Z,1.18
2023-04-02T19:19:33.467Z,1.34
2023-04-02T19:22:16.740Z,1.22
2023-04-02T19:25:02.376Z,0.88
2023-04-02T19:27:39.295Z,1.28
2023-04-02T19:30:30.550Z,1.10
2023-04-02T19:33:06.474Z,1.38
2023-04-02T19:35:41.159Z,1.39
2023-04-02T19:38:20.103Z,1.36
2023-04-02T19:40:53.930Z,1.37
2023-04-02T19:43:23.901Z,1.20
2023-04-02T19:45:54.518Z,1.32
2023-04-02T19:48:25.611Z,0.84
2023-04-02T19:50:54.182Z,0.94
2023-04-02T19:53:22.180Z,1.04
2023-04-02T19:55:50.397Z,0.78
2023-04-02T19:58:30.236Z,0.77
2023-04-02T20:01:02.086Z,0.77
2023-04-02T20:03:30.224Z,0.90
2023-04-02T20:05:59.698Z,1.21
2023-04-02T20:08:27.716Z,1.17
2023-04-02T20:10:55.701Z,1.21
2023-04-02T20:13:23.432Z,0.81
2023-04-02T20:16:19.247Z,0.67
2023-04-02T20:18:54.137Z,0.75
2023-04-02T20:21:22.216Z,1.08
2023-04-02T20:23:53.986Z,1.17
2023-04-02T20:26:30.501Z,0.71
2023-04-02T20:29:22.739Z,1.17
2023-04-02T20:31:55.486Z,0.78
2023-04-02T20:34:23.275Z,1.08
2023-04-02T20:36:51.034Z,1.10
2023-04-02T20:39:19.429Z,1.14
2023-04-02T20:41:47.566Z,1.15
2023-04-02T20:44:17.126Z,0.99
2023-04-02T20:46:44.882Z,1.21
2023-04-02T20:49:14.299Z,1.24
2023-04-02T20:51:41.961Z,1.18
2023-04-02T20:54:09.652Z,1.18
2023-04-02T20:56:37.283Z,0.86
2023-04-02T20:59:05.067Z,0.90
2023-04-02T21:01:33.137Z,1.10
2023-04-02T21:04:05.684Z,0.92
2023-04-02T21:06:37.113Z,0.94
2023-04-02T21:09:08.489Z,1.04
2023-04-02T21:11:37.168Z,0.99
2023-04-02T21:14:05.199Z,0.97
2023-04-02T21:16:33.387Z,1.00
2023-04-02T21:19:03.357Z,0.84
2023-04-02T21:21:31.081Z,0.76
2023-04-02T21:24:02.756Z,0.85
2023-04-02T21:26:33.408Z,0.97
2023-04-02T21:29:02.977Z,0.87
2023-04-02T21:31:33.907Z,1.00
2023-04-02T21:34:01.816Z,0.82
2023-04-02T21:36:32.031Z,0.99
2023-04-02T21:39:03.254Z,0.82
2023-04-02T21:41:33.015Z,0.99
2023-04-02T21:44:03.065Z,0.91
2023-04-02T21:46:32.575Z,0.75
2023-04-02T21:49:00.947Z,0.94
2023-04-02T21:51:30.297Z,0.81
2023-04-02T21:53:58.491Z,0.91
2023-04-02T21:56:29.292Z,0.91
2023-04-02T21:58:58.375Z,0.81
2023-04-02T22:01:30.282Z,0.84
2023-04-02T22:03:59.632Z,0.79
2023-04-02T22:06:29.503Z,0.84
2023-04-02T22:08:59.761Z,0.87
2023-04-02T22:11:31.655Z,0.86
2023-04-02T22:14:00.220Z,0.77
2023-04-02T22:16:31.301Z,0.80
2023-04-02T22:19:01.289Z,0.87
2023-04-02T22:21:29.808Z,0.93
2023-04-02T22:23:57.511Z,0.92
2023-04-02T22:26:25.573Z,0.98
2023-04-02T22:28:54.621Z,1.00
2023-04-02T22:31:24.292Z,0.81
2023-04-02T22:33:52.869Z,0.89
2023-04-02T22:36:21.569Z,0.77
2023-04-02T22:38:49.787Z,0.90
2023-04-02T22:41:19.550Z,0.88
2023-04-02T22:43:47.200Z,0.89
2023-04-02T22:46:18.805Z,0.85
2023-04-02T22:48:47.412Z,0.87
2023-04-02T22:51:17.689Z,0.82
2023-04-02T22:53:45.767Z,0.81
2023-04-02T22:56:14.868Z,0.81
2023-04-02T22:58:43.113Z,0.78
2023-04-02T23:01:13.080Z,0.86
2023-04-02T23:03:42.031Z,0.75
2023-04-02T23:06:11.451Z,0.72
2023-04-02T23:08:40.384Z,0.71
2023-04-02T23:11:10.000Z,0.79
2023-04-02T23:13:38.168Z,0.66
2023-04-02T23:16:08.394Z,0.79
2023-04-02T23:18:36.799Z,0.85
2023-04-02T23:21:07.028Z,0.86
2023-04-02T23:23:35.614Z,0.90
2023-04-02T23:26:04.994Z,0.89
2023-04-02T23:28:32.458Z,0.90
2023-04-02T23:31:00.158Z,0.90
2023-04-02T23:33:27.605Z,0.87
2023-04-02T23:35:55.106Z,0.81
2023-04-02T23:38:23.903Z,0.77
2023-04-02T23:40:51.470Z,0.76
2023-04-02T23:43:18.957Z,0.70
2023-04-02T23:45:48.793Z,0.46
2023-04-02T23:48:17.024Z,0.60
2023-04-02T23:50:45.762Z,0.54
2023-04-02T23:53:13.703Z,0.58
2023-04-02T23:59:19.360Z,0.17
